sensor_id;sensor_type;location;lat;lon;timestamp;pressure;altitude;pressure_sealevel;temperature;humidity
37710;BME280;60223;34.854;-92.408;2023-03-19T00:02:17;101541.93;;;19.16;26.38
37710;BME280;60223;34.854;-92.408;2023-03-19T00:04:43;101545.83;;;19.15;26.03
37710;BME280;60223;34.854;-92.408;2023-03-19T00:07:07;101551.59;;;19.49;25.35
37710;BME280;60223;34.854;-92.408;2023-03-19T00:09:35;101561.01;;;18.69;26.34
37710;BME280;60223;34.854;-92.408;2023-03-19T00:12:00;101565.02;;;18.53;27.09
37710;BME280;60223;34.854;-92.408;2023-03-19T00:14:26;101567.14;;;18.59;26.66
37710;BME280;60223;34.854;-92.408;2023-03-19T00:16:52;101576.66;;;19.76;26.27
37710;BME280;60223;34.854;-92.408;2023-03-19T00:19:15;101578.78;;;19.27;26.11
37710;BME280;60223;34.854;-92.408;2023-03-19T00:21:44;101582.86;;;19.33;26.28
37710;BME280;60223;34.854;-92.408;2023-03-19T00:24:09;101588.45;;;18.71;27.49
37710;BME280;60223;34.854;-92.408;2023-03-19T00:26:36;101594.24;;;18.61;27.52
37710;BME280;60223;34.854;-92.408;2023-03-19T00:29:01;101603.16;;;18.58;28.11
37710;BME280;60223;34.854;-92.408;2023-03-19T00:31:27;101602.88;;;18.08;28.87
37710;BME280;60223;34.854;-92.408;2023-03-19T00:33:53;101614.00;;;18.33;29.47
37710;BME280;60223;34.854;-92.408;2023-03-19T00:36:16;101623.03;;;18.22;29.92
37710;BME280;60223;34.854;-92.408;2023-03-19T00:38:43;101630.73;;;18.46;30.23
37710;BME280;60223;34.854;-92.408;2023-03-19T00:41:09;101642.02;;;18.40;30.31
37710;BME280;60223;34.854;-92.408;2023-03-19T00:43:35;101648.19;;;18.74;29.90
37710;BME280;60223;34.854;-92.408;2023-03-19T00:45:59;101653.15;;;18.08;30.16
37710;BME280;60223;34.854;-92.408;2023-03-19T00:48:26;101661.47;;;18.39;29.83
37710;BME280;60223;34.854;-92.408;2023-03-19T00:50:52;101667.36;;;18.68;30.34
37710;BME280;60223;34.854;-92.408;2023-03-19T00:53:18;101675.99;;;19.00;29.61
37710;BME280;60223;34.854;-92.408;2023-03-19T00:55:43;101680.33;;;19.50;29.43
37710;BME280;60223;34.854;-92.408;2023-03-19T00:58:08;101683.24;;;19.12;28.79
37710;BME280;60223;34.854;-92.408;2023-03-19T01:00:35;101689.27;;;19.17;28.31
37710;BME280;60223;34.854;-92.408;2023-03-19T01:03:00;101698.41;;;18.50;29.38
37710;BME280;60223;34.854;-92.408;2023-03-19T01:05:25;101700.75;;;18.32;30.07
37710;BME280;60223;34.854;-92.408;2023-03-19T01:07:50;101706.13;;;18.50;29.58
37710;BME280;60223;34.854;-92.408;2023-03-19T01:10:17;101713.73;;;18.45;29.05
37710;BME280;60223;34.854;-92.408;2023-03-19T01:12:44;101717.75;;;18.79;29.12
37710;BME280;60223;34.854;-92.408;2023-03-19T01:15:10;101725.03;;;18.65;29.52
37710;BME280;60223;34.854;-92.408;2023-03-19T01:17:33;101731.42;;;18.52;28.84
37710;BME280;60223;34.854;-92.408;2023-03-19T01:20:01;101732.86;;;18.97;28.81
37710;BME280;60223;34.854;-92.408;2023-03-19T01:22:26;101736.81;;;18.48;29.20
37710;BME280;60223;34.854;-92.408;2023-03-19T01:24:53;101743.89;;;18.34;30.51
37710;BME280;60223;34.854;-92.408;2023-03-19T01:27:17;101752.90;;;17.83;28.65
37710;BME280;60223;34.854;-92.408;2023-03-19T01:29:44;101761.57;;;18.16;30.25
37710;BME280;60223;34.854;-92.408;2023-03-19T01:32:10;101770.72;;;18.32;29.98
37710;BME280;60223;34.854;-92.408;2023-03-19T01:34:35;101772.54;;;19.22;29.10
37710;BME280;60223;34.854;-92.408;2023-03-19T01:36:58;101774.84;;;18.43;28.38
37710;BME280;60223;34.854;-92.408;2023-03-19T01:39:27;101783.17;;;17.83;29.27
37710;BME280;60223;34.854;-92.408;2023-03-19T01:41:52;101786.42;;;17.80;29.83
37710;BME280;60223;34.854;-92.408;2023-03-19T01:44:28;101794.32;;;18.29;29.31
37710;BME280;60223;34.854;-92.408;2023-03-19T01:46:42;101807.05;;;18.66;29.49
37710;BME280;60223;34.854;-92.408;2023-03-19T01:49:10;101812.63;;;17.90;29.53
37710;BME280;60223;34.854;-92.408;2023-03-19T01:54:04;101824.93;;;17.73;29.69
37710;BME280;60223;34.854;-92.408;2023-03-19T01:56:28;101828.58;;;17.52;29.71
37710;BME280;60223;34.854;-92.408;2023-03-19T01:58:56;101830.77;;;17.52;29.90
37710;BME280;60223;34.854;-92.408;2023-03-19T02:01:17;101829.71;;;17.35;30.24
37710;BME280;60223;34.854;-92.408;2023-03-19T02:03:44;101832.81;;;17.94;29.93
37710;BME280;60223;34.854;-92.408;2023-03-19T02:06:10;101839.86;;;18.06;28.97
37710;BME280;60223;34.854;-92.408;2023-03-19T02:08:35;101844.96;;;18.07;27.68
37710;BME280;60223;34.854;-92.408;2023-03-19T02:11:02;101852.17;;;17.51;28.59
37710;BME280;60223;34.854;-92.408;2023-03-19T02:13:27;101851.07;;;17.22;29.76
37710;BME280;60223;34.854;-92.408;2023-03-19T02:15:53;101863.53;;;17.59;29.11
37710;BME280;60223;34.854;-92.408;2023-03-19T02:18:17;101867.64;;;17.37;28.90
37710;BME280;60223;34.854;-92.408;2023-03-19T02:20:51;101869.44;;;17.32;29.85
37710;BME280;60223;34.854;-92.408;2023-03-19T02:23:19;101872.35;;;17.28;29.60
37710;BME280;60223;34.854;-92.408;2023-03-19T02:25:39;101877.01;;;17.00;29.42
37710;BME280;60223;34.854;-92.408;2023-03-19T02:28:02;101882.47;;;17.29;30.18
37710;BME280;60223;34.854;-92.408;2023-03-19T02:30:30;101890.41;;;17.74;29.86
37710;BME280;60223;34.854;-92.408;2023-03-19T02:32:53;101892.94;;;17.84;28.85
37710;BME280;60223;34.854;-92.408;2023-03-19T02:35:19;101895.33;;;18.20;28.22
37710;BME280;60223;34.854;-92.408;2023-03-19T02:37:44;101897.94;;;17.14;29.86
37710;BME280;60223;34.854;-92.408;2023-03-19T02:40:13;101901.53;;;17.00;29.13
37710;BME280;60223;34.854;-92.408;2023-03-19T02:42:36;101905.50;;;17.51;29.48
37710;BME280;60223;34.854;-92.408;2023-03-19T02:45:01;101904.30;;;17.61;29.59
37710;BME280;60223;34.854;-92.408;2023-03-19T02:47:26;101911.06;;;17.33;29.81
37710;BME280;60223;34.854;-92.408;2023-03-19T02:49:53;101911.91;;;17.57;29.78
37710;BME280;60223;34.854;-92.408;2023-03-19T02:52:19;101916.67;;;17.26;29.99
37710;BME280;60223;34.854;-92.408;2023-03-19T02:54:44;101919.65;;;17.45;30.03
37710;BME280;60223;34.854;-92.408;2023-03-19T02:57:10;101922.16;;;17.50;29.91
37710;BME280;60223;34.854;-92.408;2023-03-19T02:59:36;101923.93;;;18.17;29.37
37710;BME280;60223;34.854;-92.408;2023-03-19T03:01:59;101920.51;;;18.32;28.99
37710;BME280;60223;34.854;-92.408;2023-03-19T03:04:28;101923.50;;;17.74;29.05
37710;BME280;60223;34.854;-92.408;2023-03-19T03:07:06;101924.65;;;17.18;29.89
37710;BME280;60223;34.854;-92.408;2023-03-19T03:09:19;101931.43;;;17.47;29.94
37710;BME280;60223;34.854;-92.408;2023-03-19T03:11:45;101936.05;;;17.17;29.98
37710;BME280;60223;34.854;-92.408;2023-03-19T03:14:10;101938.68;;;17.43;29.93
37710;BME280;60223;34.854;-92.408;2023-03-19T03:16:36;101944.78;;;17.34;30.25
37710;BME280;60223;34.854;-92.408;2023-03-19T03:19:02;101948.43;;;17.35;30.20
37710;BME280;60223;34.854;-92.408;2023-03-19T03:21:28;101956.33;;;17.23;30.49
37710;BME280;60223;34.854;-92.408;2023-03-19T03:23:52;101962.67;;;17.72;29.48
37710;BME280;60223;34.854;-92.408;2023-03-19T03:26:20;101963.50;;;17.86;29.66
37710;BME280;60223;34.854;-92.408;2023-03-19T03:28:45;101967.14;;;18.06;29.29
37710;BME280;60223;34.854;-92.408;2023-03-19T03:31:11;101964.52;;;17.33;29.50
37710;BME280;60223;34.854;-92.408;2023-03-19T03:33:37;101965.68;;;17.06;30.14
37710;BME280;60223;34.854;-92.408;2023-03-19T03:36:02;101969.53;;;17.10;29.98
37710;BME280;60223;34.854;-92.408;2023-03-19T03:38:28;101972.14;;;17.24;29.91
37710;BME280;60223;34.854;-92.408;2023-03-19T03:40:54;101971.66;;;17.10;29.99
37710;BME280;60223;34.854;-92.408;2023-03-19T03:43:20;101969.86;;;17.15;30.15
37710;BME280;60223;34.854;-92.408;2023-03-19T03:45:44;101971.79;;;17.08;30.06
37710;BME280;60223;34.854;-92.408;2023-03-19T03:48:12;101975.75;;;16.82;30.40
37710;BME280;60223;34.854;-92.408;2023-03-19T03:50:37;101979.72;;;16.77;30.26
37710;BME280;60223;34.854;-92.408;2023-03-19T03:53:03;101984.88;;;16.76;30.42
37710;BME280;60223;34.854;-92.408;2023-03-19T03:55:28;101986.94;;;17.09;30.64
37710;BME280;60223;34.854;-92.408;2023-03-19T03:57:54;101983.75;;;16.54;31.02
37710;BME280;60223;34.854;-92.408;2023-03-19T04:00:20;101986.08;;;16.85;30.67
37710;BME280;60223;34.854;-92.408;2023-03-19T04:02:46;101989.49;;;16.59;30.98
37710;BME280;60223;34.854;-92.408;2023-03-19T04:05:12;101993.02;;;17.47;30.39
37710;BME280;60223;34.854;-92.408;2023-03-19T04:07:36;101994.12;;;17.40;30.36
37710;BME280;60223;34.854;-92.408;2023-03-19T04:10:04;101996.11;;;17.10;29.85
37710;BME280;60223;34.854;-92.408;2023-03-19T04:19:46;102007.35;;;16.88;29.83
37710;BME280;60223;34.854;-92.408;2023-03-19T04:22:13;102008.16;;;17.21;30.51
37710;BME280;60223;34.854;-92.408;2023-03-19T04:24:38;102012.33;;;17.19;30.19
37710;BME280;60223;34.854;-92.408;2023-03-19T04:27:04;102010.61;;;16.85;30.55
37710;BME280;60223;34.854;-92.408;2023-03-19T04:29:30;102012.38;;;16.84;30.05
37710;BME280;60223;34.854;-92.408;2023-03-19T04:31:55;102011.81;;;16.93;30.27
37710;BME280;60223;34.854;-92.408;2023-03-19T04:34:20;102009.57;;;16.73;30.65
37710;BME280;60223;34.854;-92.408;2023-03-19T04:36:47;102013.15;;;16.80;30.05
37710;BME280;60223;34.854;-92.408;2023-03-19T04:39:12;102019.31;;;16.75;30.12
37710;BME280;60223;34.854;-92.408;2023-03-19T04:41:39;102020.49;;;16.50;29.96
37710;BME280;60223;34.854;-92.408;2023-03-19T04:44:04;102024.14;;;16.35;30.50
37710;BME280;60223;34.854;-92.408;2023-03-19T04:46:30;102027.87;;;16.71;30.82
37710;BME280;60223;34.854;-92.408;2023-03-19T04:48:55;102029.83;;;16.46;30.62
37710;BME280;60223;34.854;-92.408;2023-03-19T04:51:22;102030.40;;;16.56;30.67
37710;BME280;60223;34.854;-92.408;2023-03-19T04:53:47;102032.92;;;16.54;30.51
37710;BME280;60223;34.854;-92.408;2023-03-19T04:56:13;102032.24;;;16.64;31.09
37710;BME280;60223;34.854;-92.408;2023-03-19T04:58:37;102033.75;;;16.79;30.53
37710;BME280;60223;34.854;-92.408;2023-03-19T05:01:03;102031.30;;;16.61;30.36
37710;BME280;60223;34.854;-92.408;2023-03-19T05:03:31;102031.47;;;16.44;30.36
37710;BME280;60223;34.854;-92.408;2023-03-19T05:05:57;102026.35;;;16.46;30.45
37710;BME280;60223;34.854;-92.408;2023-03-19T05:08:22;102027.11;;;16.76;30.38
37710;BME280;60223;34.854;-92.408;2023-03-19T05:10:48;102026.07;;;16.41;30.44
37710;BME280;60223;34.854;-92.408;2023-03-19T05:13:14;102023.47;;;16.37;30.35
37710;BME280;60223;34.854;-92.408;2023-03-19T05:15:40;102026.63;;;16.27;30.46
37710;BME280;60223;34.854;-92.408;2023-03-19T05:18:06;102029.79;;;16.69;30.19
37710;BME280;60223;34.854;-92.408;2023-03-19T05:20:31;102030.61;;;16.34;30.19
37710;BME280;60223;34.854;-92.408;2023-03-19T05:22:58;102030.61;;;16.55;30.52
37710;BME280;60223;34.854;-92.408;2023-03-19T05:25:23;102032.48;;;16.64;30.38
37710;BME280;60223;34.854;-92.408;2023-03-19T05:27:48;102032.59;;;16.43;30.40
37710;BME280;60223;34.854;-92.408;2023-03-19T05:30:16;102029.59;;;16.43;30.12
37710;BME280;60223;34.854;-92.408;2023-03-19T05:32:40;102031.62;;;16.35;30.48
37710;BME280;60223;34.854;-92.408;2023-03-19T05:35:07;102033.13;;;16.20;29.74
37710;BME280;60223;34.854;-92.408;2023-03-19T05:37:32;102036.08;;;16.34;30.12
37710;BME280;60223;34.854;-92.408;2023-03-19T05:39:56;102035.11;;;16.65;30.23
37710;BME280;60223;34.854;-92.408;2023-03-19T05:42:24;102034.94;;;16.36;30.13
37710;BME280;60223;34.854;-92.408;2023-03-19T05:44:49;102034.85;;;16.31;30.25
37710;BME280;60223;34.854;-92.408;2023-03-19T05:47:16;102035.80;;;16.38;30.07
37710;BME280;60223;34.854;-92.408;2023-03-19T05:49:40;102040.91;;;15.89;30.22
37710;BME280;60223;34.854;-92.408;2023-03-19T05:52:07;102043.00;;;16.13;30.64
37710;BME280;60223;34.854;-92.408;2023-03-19T05:54:33;102039.67;;;15.94;30.47
37710;BME280;60223;34.854;-92.408;2023-03-19T05:56:59;102042.98;;;16.18;30.25
37710;BME280;60223;34.854;-92.408;2023-03-19T05:59:23;102038.87;;;16.00;30.46
37710;BME280;60223;34.854;-92.408;2023-03-19T06:01:49;102042.70;;;16.28;30.12
37710;BME280;60223;34.854;-92.408;2023-03-19T06:04:16;102040.16;;;16.06;30.29
37710;BME280;60223;34.854;-92.408;2023-03-19T06:06:42;102042.20;;;15.91;30.23
37710;BME280;60223;34.854;-92.408;2023-03-19T06:09:08;102045.81;;;16.12;30.67
37710;BME280;60223;34.854;-92.408;2023-03-19T06:11:32;102046.47;;;15.83;30.34
37710;BME280;60223;34.854;-92.408;2023-03-19T06:13:59;102045.48;;;15.90;30.30
37710;BME280;60223;34.854;-92.408;2023-03-19T06:16:25;102044.69;;;15.89;30.63
37710;BME280;60223;34.854;-92.408;2023-03-19T06:18:51;102047.19;;;16.05;30.60
37710;BME280;60223;34.854;-92.408;2023-03-19T06:21:17;102042.54;;;15.96;30.36
37710;BME280;60223;34.854;-92.408;2023-03-19T06:23:43;102041.47;;;16.00;30.19
37710;BME280;60223;34.854;-92.408;2023-03-19T06:26:08;102039.72;;;15.68;30.21
37710;BME280;60223;34.854;-92.408;2023-03-19T06:28:33;102038.06;;;15.87;30.60
37710;BME280;60223;34.854;-92.408;2023-03-19T06:31:00;102042.67;;;15.75;30.34
37710;BME280;60223;34.854;-92.408;2023-03-19T06:33:26;102043.23;;;16.06;30.20
37710;BME280;60223;34.854;-92.408;2023-03-19T06:35:52;102042.87;;;15.71;30.55
37710;BME280;60223;34.854;-92.408;2023-03-19T06:38:16;102040.85;;;15.80;29.90
37710;BME280;60223;34.854;-92.408;2023-03-19T06:40:43;102041.70;;;15.41;30.48
37710;BME280;60223;34.854;-92.408;2023-03-19T06:43:09;102041.34;;;15.49;30.42
37710;BME280;60223;34.854;-92.408;2023-03-19T06:45:35;102044.48;;;15.70;30.47
37710;BME280;60223;34.854;-92.408;2023-03-19T06:48:01;102044.11;;;15.65;30.63
37710;BME280;60223;34.854;-92.408;2023-03-19T06:50:25;102047.18;;;15.57;30.57
37710;BME280;60223;34.854;-92.408;2023-03-19T06:52:53;102046.32;;;15.42;30.17
37710;BME280;60223;34.854;-92.408;2023-03-19T06:55:15;102045.39;;;15.64;30.56
37710;BME280;60223;34.854;-92.408;2023-03-19T06:57:46;102048.36;;;15.31;30.57
37710;BME280;60223;34.854;-92.408;2023-03-19T07:00:11;102052.42;;;15.28;30.58
37710;BME280;60223;34.854;-92.408;2023-03-19T07:02:36;102053.25;;;15.68;30.57
37710;BME280;60223;34.854;-92.408;2023-03-19T07:05:02;102065.02;;;15.29;30.51
37710;BME280;60223;34.854;-92.408;2023-03-19T07:07:28;102062.34;;;15.41;30.35
37710;BME280;60223;34.854;-92.408;2023-03-19T07:09:51;102061.25;;;15.62;30.22
37710;BME280;60223;34.854;-92.408;2023-03-19T07:12:19;102059.79;;;15.22;30.08
37710;BME280;60223;34.854;-92.408;2023-03-19T07:14:45;102057.47;;;15.28;30.22
37710;BME280;60223;34.854;-92.408;2023-03-19T07:17:11;102056.23;;;15.19;30.35
37710;BME280;60223;34.854;-92.408;2023-03-19T07:19:35;102053.06;;;14.97;29.86
37710;BME280;60223;34.854;-92.408;2023-03-19T07:22:03;102050.07;;;14.91;30.36
37710;BME280;60223;34.854;-92.408;2023-03-19T07:24:28;102050.22;;;15.15;30.69
37710;BME280;60223;34.854;-92.408;2023-03-19T07:26:52;102047.06;;;15.03;30.65
37710;BME280;60223;34.854;-92.408;2023-03-19T07:29:21;102044.15;;;15.01;29.86
37710;BME280;60223;34.854;-92.408;2023-03-19T07:31:44;102043.85;;;15.05;30.16
37710;BME280;60223;34.854;-92.408;2023-03-19T07:34:12;102044.20;;;15.11;30.25
37710;BME280;60223;34.854;-92.408;2023-03-19T07:36:38;102047.01;;;15.26;30.39
37710;BME280;60223;34.854;-92.408;2023-03-19T07:39:04;102051.52;;;15.31;30.57
37710;BME280;60223;34.854;-92.408;2023-03-19T07:41:28;102051.78;;;15.21;30.48
37710;BME280;60223;34.854;-92.408;2023-03-19T07:43:55;102049.62;;;15.04;30.38
37710;BME280;60223;34.854;-92.408;2023-03-19T07:46:21;102050.50;;;15.11;30.37
37710;BME280;60223;34.854;-92.408;2023-03-19T07:48:47;102050.03;;;15.10;30.06
37710;BME280;60223;34.854;-92.408;2023-03-19T07:51:13;102052.05;;;15.12;30.11
37710;BME280;60223;34.854;-92.408;2023-03-19T07:53:39;102050.77;;;15.05;30.31
37710;BME280;60223;34.854;-92.408;2023-03-19T07:56:03;102060.81;;;14.50;30.28
37710;BME280;60223;34.854;-92.408;2023-03-19T07:58:30;102066.26;;;14.58;30.07
37710;BME280;60223;34.854;-92.408;2023-03-19T08:00:56;102066.21;;;14.91;30.31
37710;BME280;60223;34.854;-92.408;2023-03-19T08:03:22;102061.24;;;14.83;30.37
37710;BME280;60223;34.854;-92.408;2023-03-19T08:05:50;102058.78;;;14.72;30.26
37710;BME280;60223;34.854;-92.408;2023-03-19T08:08:14;102060.24;;;14.44;30.21
37710;BME280;60223;34.854;-92.408;2023-03-19T08:10:39;102060.33;;;14.74;30.40
37710;BME280;60223;34.854;-92.408;2023-03-19T08:13:06;102064.99;;;14.93;30.26
37710;BME280;60223;34.854;-92.408;2023-03-19T08:15:31;102063.15;;;14.79;30.29
37710;BME280;60223;34.854;-92.408;2023-03-19T08:18:01;102059.73;;;14.74;30.07
37710;BME280;60223;34.854;-92.408;2023-03-19T08:20:21;102063.68;;;14.93;30.00
37710;BME280;60223;34.854;-92.408;2023-03-19T08:22:52;102064.03;;;14.57;30.74
37710;BME280;60223;34.854;-92.408;2023-03-19T08:25:15;102065.98;;;14.85;30.09
37710;BME280;60223;34.854;-92.408;2023-03-19T08:27:40;102061.26;;;14.58;30.22
37710;BME280;60223;34.854;-92.408;2023-03-19T08:30:09;102061.89;;;14.48;30.35
37710;BME280;60223;34.854;-92.408;2023-03-19T08:32:30;102061.86;;;14.54;30.96
37710;BME280;60223;34.854;-92.408;2023-03-19T08:34:57;102063.72;;;14.54;30.58
37710;BME280;60223;34.854;-92.408;2023-03-19T08:37:24;102066.19;;;14.70;30.63
37710;BME280;60223;34.854;-92.408;2023-03-19T08:39:49;102066.90;;;14.75;30.09
37710;BME280;60223;34.854;-92.408;2023-03-19T08:42:17;102058.16;;;14.44;30.36
37710;BME280;60223;34.854;-92.408;2023-03-19T08:44:39;102063.23;;;14.82;30.06
37710;BME280;60223;34.854;-92.408;2023-03-19T08:47:08;102059.21;;;14.40;30.45
37710;BME280;60223;34.854;-92.408;2023-03-19T08:49:31;102062.37;;;14.54;30.21
37710;BME280;60223;34.854;-92.408;2023-03-19T08:51:59;102068.20;;;14.49;30.36
37710;BME280;60223;34.854;-92.408;2023-03-19T08:54:25;102067.97;;;14.30;30.04
37710;BME280;60223;34.854;-92.408;2023-03-19T08:56:51;102066.28;;;14.60;30.29
37710;BME280;60223;34.854;-92.408;2023-03-19T08:59:15;102070.68;;;14.17;30.30
37710;BME280;60223;34.854;-92.408;2023-03-19T09:01:41;102069.86;;;14.63;30.36
37710;BME280;60223;34.854;-92.408;2023-03-19T09:04:07;102069.49;;;14.44;30.43
37710;BME280;60223;34.854;-92.408;2023-03-19T09:06:34;102071.62;;;14.63;30.54
37710;BME280;60223;34.854;-92.408;2023-03-19T09:08:59;102072.39;;;14.34;30.44
37710;BME280;60223;34.854;-92.408;2023-03-19T09:11:25;102066.64;;;14.49;30.12
37710;BME280;60223;34.854;-92.408;2023-03-19T09:13:49;102069.76;;;14.43;30.44
37710;BME280;60223;34.854;-92.408;2023-03-19T09:16:16;102072.50;;;14.41;30.38
37710;BME280;60223;34.854;-92.408;2023-03-19T09:18:41;102075.55;;;13.88;30.49
37710;BME280;60223;34.854;-92.408;2023-03-19T09:21:07;102077.29;;;14.15;30.17
37710;BME280;60223;34.854;-92.408;2023-03-19T09:23:31;102079.24;;;13.59;30.66
37710;BME280;60223;34.854;-92.408;2023-03-19T09:25:56;102081.27;;;14.19;30.68
37710;BME280;60223;34.854;-92.408;2023-03-19T09:28:23;102085.73;;;13.71;30.26
37710;BME280;60223;34.854;-92.408;2023-03-19T09:30:46;102087.74;;;14.28;30.19
37710;BME280;60223;34.854;-92.408;2023-03-19T09:33:12;102087.22;;;14.38;30.23
37710;BME280;60223;34.854;-92.408;2023-03-19T09:35:37;102089.10;;;14.15;30.68
37710;BME280;60223;34.854;-92.408;2023-03-19T09:38:03;102091.67;;;13.89;30.37
37710;BME280;60223;34.854;-92.408;2023-03-19T09:40:28;102092.59;;;13.84;30.39
37710;BME280;60223;34.854;-92.408;2023-03-19T09:42:59;102097.93;;;13.61;30.27
37710;BME280;60223;34.854;-92.408;2023-03-19T09:45:18;102098.15;;;13.76;30.73
37710;BME280;60223;34.854;-92.408;2023-03-19T09:47:42;102101.25;;;13.93;30.39
37710;BME280;60223;34.854;-92.408;2023-03-19T09:50:10;102101.22;;;14.16;30.16
37710;BME280;60223;34.854;-92.408;2023-03-19T09:52:39;102107.07;;;13.84;30.66
37710;BME280;60223;34.854;-92.408;2023-03-19T09:54:59;102108.07;;;13.52;30.58
37710;BME280;60223;34.854;-92.408;2023-03-19T09:57:22;102104.88;;;13.79;30.39
37710;BME280;60223;34.854;-92.408;2023-03-19T09:59:48;102104.06;;;13.88;30.30
37710;BME280;60223;34.854;-92.408;2023-03-19T10:04:44;102106.61;;;13.60;30.63
37710;BME280;60223;34.854;-92.408;2023-03-19T10:07:06;102109.80;;;13.57;30.80
37710;BME280;60223;34.854;-92.408;2023-03-19T10:09:34;102111.32;;;13.97;30.10
37710;BME280;60223;34.854;-92.408;2023-03-19T10:12:03;102119.04;;;13.47;30.42
37710;BME280;60223;34.854;-92.408;2023-03-19T10:14:28;102120.84;;;13.52;30.39
37710;BME280;60223;34.854;-92.408;2023-03-19T10:16:42;102123.70;;;13.43;30.55
37710;BME280;60223;34.854;-92.408;2023-03-19T10:19:08;102125.60;;;13.40;30.22
37710;BME280;60223;34.854;-92.408;2023-03-19T10:21:33;102127.85;;;13.32;30.65
37710;BME280;60223;34.854;-92.408;2023-03-19T10:24:00;102129.89;;;13.48;30.71
37710;BME280;60223;34.854;-92.408;2023-03-19T10:26:25;102135.57;;;13.50;30.06
37710;BME280;60223;34.854;-92.408;2023-03-19T10:28:54;102136.84;;;13.22;30.90
37710;BME280;60223;34.854;-92.408;2023-03-19T10:31:23;102144.88;;;13.28;30.80
37710;BME280;60223;34.854;-92.408;2023-03-19T10:33:43;102140.53;;;13.33;30.20
37710;BME280;60223;34.854;-92.408;2023-03-19T10:36:08;102144.15;;;13.08;30.62
37710;BME280;60223;34.854;-92.408;2023-03-19T10:38:28;102142.24;;;12.96;30.76
37710;BME280;60223;34.854;-92.408;2023-03-19T10:41:03;102137.91;;;13.50;30.61
37710;BME280;60223;34.854;-92.408;2023-03-19T10:43:20;102149.83;;;13.01;30.47
37710;BME280;60223;34.854;-92.408;2023-03-19T10:45:43;102153.71;;;13.01;30.50
37710;BME280;60223;34.854;-92.408;2023-03-19T10:48:11;102158.40;;;13.03;30.53
37710;BME280;60223;34.854;-92.408;2023-03-19T10:50:34;102160.51;;;13.02;30.57
37710;BME280;60223;34.854;-92.408;2023-03-19T10:53:06;102168.50;;;12.81;30.76
37710;BME280;60223;34.854;-92.408;2023-03-19T10:55:29;102170.05;;;13.22;31.15
37710;BME280;60223;34.854;-92.408;2023-03-19T10:57:49;102173.29;;;13.24;30.43
37710;BME280;60223;34.854;-92.408;2023-03-19T11:00:19;102185.95;;;12.48;30.69
37710;BME280;60223;34.854;-92.408;2023-03-19T11:02:40;102187.06;;;12.87;30.51
37710;BME280;60223;34.854;-92.408;2023-03-19T11:05:14;102182.05;;;13.27;30.41
37710;BME280;60223;34.854;-92.408;2023-03-19T11:07:27;102180.44;;;13.01;29.97
37710;BME280;60223;34.854;-92.408;2023-03-19T11:09:53;102193.27;;;12.40;31.47
37710;BME280;60223;34.854;-92.408;2023-03-19T11:12:20;102189.95;;;12.82;31.14
37710;BME280;60223;34.854;-92.408;2023-03-19T11:14:41;102189.83;;;13.26;30.33
37710;BME280;60223;34.854;-92.408;2023-03-19T11:19:38;102190.95;;;13.17;30.39
37710;BME280;60223;34.854;-92.408;2023-03-19T11:22:07;102197.44;;;13.48;29.63
37710;BME280;60223;34.854;-92.408;2023-03-19T11:24:23;102198.36;;;13.46;28.78
37710;BME280;60223;34.854;-92.408;2023-03-19T11:26:54;102198.58;;;13.98;29.26
37710;BME280;60223;34.854;-92.408;2023-03-19T11:29:13;102206.88;;;14.22;29.43
37710;BME280;60223;34.854;-92.408;2023-03-19T11:31:45;102214.50;;;14.22;29.04
37710;BME280;60223;34.854;-92.408;2023-03-19T11:34:14;102212.82;;;13.86;30.08
37710;BME280;60223;34.854;-92.408;2023-03-19T11:36:30;102215.48;;;13.85;29.24
37710;BME280;60223;34.854;-92.408;2023-03-19T11:39:04;102222.05;;;14.34;29.24
37710;BME280;60223;34.854;-92.408;2023-03-19T11:41:26;102224.55;;;14.48;28.93
37710;BME280;60223;34.854;-92.408;2023-03-19T11:43:50;102230.08;;;14.95;28.74
37710;BME280;60223;34.854;-92.408;2023-03-19T11:46:17;102233.18;;;14.47;28.89
37710;BME280;60223;34.854;-92.408;2023-03-19T11:48:45;102230.45;;;14.99;28.53
37710;BME280;60223;34.854;-92.408;2023-03-19T11:51:03;102229.99;;;14.13;28.08
37710;BME280;60223;34.854;-92.408;2023-03-19T11:53:27;102232.01;;;15.07;29.07
37710;BME280;60223;34.854;-92.408;2023-03-19T11:55:57;102241.16;;;14.77;28.45
37710;BME280;60223;34.854;-92.408;2023-03-19T11:58:27;102243.31;;;14.52;28.96
37710;BME280;60223;34.854;-92.408;2023-03-19T12:00:45;102236.81;;;14.92;28.82
37710;BME280;60223;34.854;-92.408;2023-03-19T12:03:20;102239.30;;;15.03;28.59
37710;BME280;60223;34.854;-92.408;2023-03-19T12:05:36;102247.44;;;15.00;28.38
37710;BME280;60223;34.854;-92.408;2023-03-19T12:08:06;102249.61;;;15.32;28.23
37710;BME280;60223;34.854;-92.408;2023-03-19T12:10:32;102256.21;;;15.20;28.18
37710;BME280;60223;34.854;-92.408;2023-03-19T12:12:50;102258.67;;;15.24;28.20
37710;BME280;60223;34.854;-92.408;2023-03-19T12:15:22;102260.99;;;15.25;28.52
37710;BME280;60223;34.854;-92.408;2023-03-19T12:17:53;102268.27;;;15.31;27.92
37710;BME280;60223;34.854;-92.408;2023-03-19T12:20:20;102273.26;;;15.48;27.91
37710;BME280;60223;34.854;-92.408;2023-03-19T12:22:41;102268.50;;;15.76;28.13
37710;BME280;60223;34.854;-92.408;2023-03-19T12:25:14;102269.56;;;15.96;27.90
37710;BME280;60223;34.854;-92.408;2023-03-19T12:27:29;102270.47;;;15.43;27.15
37710;BME280;60223;34.854;-92.408;2023-03-19T12:29:55;102270.15;;;16.34;28.19
37710;BME280;60223;34.854;-92.408;2023-03-19T12:32:23;102268.37;;;16.61;27.55
37710;BME280;60223;34.854;-92.408;2023-03-19T12:34:44;102271.01;;;16.29;28.05
37710;BME280;60223;34.854;-92.408;2023-03-19T12:37:15;102269.41;;;15.63;27.88